createdAt,value
2019-05-26T06:02:26.377Z,1000.67
2019-05-26T06:03:24.608Z,1000.68
2019-05-26T06:04:25.246Z,1000.68
2019-05-26T06:05:25.738Z,1000.63
2019-05-26T06:06:33.335Z,1000.64
2019-05-26T06:07:25.331Z,1000.66
2019-05-26T06:08:26.177Z,1000.65
2019-05-26T06:09:24.493Z,1000.64
2019-05-26T06:10:24.441Z,1000.67
2019-05-26T06:11:24.425Z,1000.65
2019-05-26T06:15:12.599Z,1000.53
2019-05-26T06:16:12.338Z,1000.55
2019-05-26T06:17:11.389Z,1000.48
2019-05-26T06:18:23.342Z,1000.46
2019-05-26T06:19:11.431Z,1000.45
2019-05-26T06:20:11.348Z,1000.39
2019-05-26T06:21:11.316Z,1000.38
2019-05-26T06:22:11.302Z,1000.38
2019-05-26T06:23:11.266Z,1000.34
2019-05-26T06:24:11.319Z,1000.31
2019-05-26T06:25:11.253Z,1000.28
2019-05-26T06:26:31.527Z,1000.28
2019-05-26T06:27:11.325Z,1000.28
2019-05-26T06:28:33.060Z,1000.27
2019-05-26T06:29:11.184Z,1000.28
2019-05-26T06:30:11.180Z,1000.31
2019-05-26T06:31:24.611Z,1000.29
2019-05-26T06:32:22.536Z,1000.33
2019-05-26T06:33:11.280Z,1000.29
2019-05-26T06:34:12.233Z,1000.30
2019-05-26T06:35:22.175Z,1000.31
2019-05-26T06:36:11.572Z,1000.33
2019-05-26T06:37:11.156Z,1000.33
2019-05-26T06:38:11.083Z,1000.33
2019-05-26T06:39:11.548Z,1000.38
2019-05-26T06:40:11.024Z,1000.34
2019-05-26T06:41:11.014Z,1000.33
2019-05-26T06:42:13.100Z,1000.32
2019-05-26T06:43:10.962Z,1000.34
2019-05-26T06:44:10.980Z,1000.31
2019-05-26T06:45:10.936Z,1000.34
2019-05-26T06:46:11.095Z,1000.34
2019-05-26T06:47:10.979Z,1000.35
2019-05-26T06:48:10.907Z,1000.34
2019-05-26T06:49:10.906Z,1000.37
2019-05-26T06:50:10.859Z,1000.44
2019-05-26T06:51:11.015Z,1000.43
2019-05-26T06:52:10.834Z,1000.46
2019-05-26T06:53:10.882Z,1000.52
2019-05-26T06:54:10.919Z,1000.51
2019-05-26T06:55:10.808Z,1000.52
2019-05-26T06:56:14.595Z,1000.51
2019-05-26T06:57:10.766Z,1000.55
2019-05-26T06:58:10.807Z,1000.59
2019-05-26T06:59:10.763Z,1000.57
2019-05-26T07:00:10.746Z,1000.56
2019-05-26T07:01:10.706Z,1000.53
2019-05-26T07:02:10.701Z,1000.56
2019-05-26T07:03:10.671Z,1000.58
2019-05-26T07:04:10.657Z,1000.60
2019-05-26T07:05:10.678Z,1000.60
2019-05-26T07:06:11.536Z,1000.61
2019-05-26T07:07:10.618Z,1000.55
2019-05-26T07:08:11.759Z,1000.57
2019-05-26T07:09:10.582Z,1000.59
2019-05-26T07:10:10.710Z,1000.57
2019-05-26T07:11:10.568Z,1000.57
2019-05-26T07:12:10.541Z,1000.62
2019-05-26T07:13:10.554Z,1000.57
2019-05-26T07:14:10.526Z,1000.63
2019-05-26T07:15:12.064Z,1000.56
2019-05-26T07:16:10.504Z,1000.57
2019-05-26T07:17:10.505Z,1000.59
2019-05-26T07:18:15.480Z,1000.59
2019-05-26T07:19:10.487Z,1000.57
2019-05-26T07:20:10.435Z,1000.59
2019-05-26T07:21:10.426Z,1000.59
2019-05-26T07:22:11.539Z,1000.61
2019-05-26T07:23:11.383Z,1000.59
2019-05-26T07:24:10.371Z,1000.54
2019-05-26T07:25:10.367Z,1000.54
2019-05-26T07:26:10.352Z,1000.53
2019-05-26T07:27:10.337Z,1000.53
2019-05-26T07:28:10.369Z,1000.53
2019-05-26T07:29:10.301Z,1000.52
2019-05-26T07:30:10.296Z,1000.50
2019-05-26T07:31:10.316Z,1000.51
2019-05-26T07:32:10.313Z,1000.59
2019-05-26T07:33:10.269Z,1000.53
2019-05-26T07:34:10.239Z,1000.56
2019-05-26T07:35:10.258Z,1000.60
2019-05-26T07:36:10.204Z,1000.58
2019-05-26T07:37:10.208Z,1000.59
2019-05-26T07:38:11.031Z,1000.56
2019-05-26T07:39:10.178Z,1000.53
2019-05-26T07:40:10.155Z,1000.59
2019-05-26T07:41:10.153Z,1000.56
2019-05-26T07:42:11.252Z,1000.54
2019-05-26T07:43:10.114Z,1000.56
2019-05-26T07:44:10.150Z,1000.57
2019-05-26T07:45:10.096Z,1000.51
2019-05-26T07:46:10.084Z,1000.47
2019-05-26T07:47:10.066Z,1000.48
2019-05-26T07:48:10.128Z,1000.52
2019-05-26T07:49:10.047Z,1000.51
2019-05-26T07:50:10.056Z,1000.53
2019-05-26T07:51:10.028Z,1000.48
2019-05-26T07:52:10.062Z,1000.54
2019-05-26T07:53:09.999Z,1000.55
2019-05-26T07:54:24.627Z,1000.57
2019-05-26T07:55:09.963Z,1000.55
2019-05-26T07:56:12.552Z,1000.59
2019-05-26T07:57:10.203Z,1000.57
2019-05-26T07:58:09.921Z,1000.58
2019-05-26T07:59:10.013Z,1000.53
2019-05-26T08:00:09.913Z,1000.61
2019-05-26T08:01:09.891Z,1000.59
2019-05-26T08:02:13.169Z,1000.58
2019-05-26T08:03:26.612Z,1000.59
2019-05-26T08:04:11.967Z,1000.57
2019-05-26T08:05:10.781Z,1000.56
2019-05-26T08:06:09.943Z,1000.56
2019-05-26T08:07:09.995Z,1000.54
2019-05-26T08:08:13.085Z,1000.51
2019-05-26T08:09:09.803Z,1000.49
2019-05-26T08:10:09.796Z,1000.53
2019-05-26T08:11:09.770Z,1000.52
2019-05-26T08:12:25.042Z,1000.50
2019-05-26T08:13:09.814Z,1000.49
2019-05-26T08:14:09.726Z,1000.47
2019-05-26T08:15:09.746Z,1000.43
2019-05-26T08:16:09.930Z,1000.40
2019-05-26T08:17:09.756Z,1000.42
2019-05-26T08:18:09.680Z,1000.41
2019-05-26T08:19:09.681Z,1000.40
2019-05-26T08:20:09.714Z,1000.42
2019-05-26T08:21:13.563Z,1000.35
2019-05-26T08:22:09.636Z,1000.42
2019-05-26T08:23:09.622Z,1000.39
2019-05-26T08:24:09.694Z,1000.45
2019-05-26T08:25:10.099Z,1000.46
2019-05-26T08:26:10.573Z,1000.40
2019-05-26T08:27:09.562Z,1000.45
2019-05-26T08:28:09.540Z,1000.39
2019-05-26T08:29:09.569Z,1000.40
2019-05-26T08:30:09.513Z,1000.39
2019-05-26T08:31:13.120Z,1000.35
2019-05-26T08:32:09.495Z,1000.34
2019-05-26T08:33:09.489Z,1000.36
2019-05-26T08:34:09.463Z,1000.33
2019-05-26T08:35:09.455Z,1000.34
2019-05-26T08:36:09.438Z,1000.31
2019-05-26T08:37:09.450Z,1000.32
2019-05-26T08:38:09.422Z,1000.29
2019-05-26T08:39:09.414Z,1000.33
2019-05-26T08:40:09.432Z,1000.34
2019-05-26T08:41:09.949Z,1000.31
2019-05-26T08:42:24.645Z,1000.30
2019-05-26T08:43:09.359Z,1000.26
2019-05-26T08:44:09.374Z,1000.28
2019-05-26T08:45:09.332Z,1000.29
2019-05-26T08:46:09.311Z,1000.29
2019-05-26T08:47:09.875Z,1000.26
2019-05-26T08:48:09.424Z,1000.28
2019-05-26T08:49:09.292Z,1000.29
2019-05-26T08:50:09.270Z,1000.32
2019-05-26T08:51:09.300Z,1000.24
2019-05-26T08:52:09.229Z,1000.23
2019-05-26T08:53:09.270Z,1000.22
2019-05-26T08:54:09.218Z,1000.23
2019-05-26T08:55:09.209Z,1000.16
2019-05-26T08:56:09.239Z,1000.13
2019-05-26T08:57:09.174Z,1000.16
2019-05-26T08:58:09.317Z,1000.11
2019-05-26T08:59:09.145Z,1000.12
2019-05-26T09:00:09.163Z,1000.17
2019-05-26T09:01:09.128Z,1000.14
2019-05-26T09:02:09.121Z,1000.13
2019-05-26T09:03:09.236Z,1000.13
2019-05-26T09:04:09.091Z,1000.12
2019-05-26T09:05:09.086Z,1000.15
2019-05-26T09:06:09.102Z,1000.12
2019-05-26T09:07:09.068Z,1000.16
2019-05-26T09:08:09.039Z,1000.14
2019-05-26T09:09:09.027Z,1000.11
2019-05-26T09:10:09.021Z,1000.09
2019-05-26T09:11:09.061Z,1000.15
2019-05-26T09:12:10.637Z,1000.12
2019-05-26T09:13:09.035Z,1000.09
2019-05-26T09:14:08.976Z,1000.09
2019-05-26T09:15:08.961Z,1000.11
2019-05-26T09:16:08.948Z,1000.09
2019-05-26T09:17:08.939Z,1000.09
2019-05-26T09:18:08.969Z,1000.14
2019-05-26T09:19:09.782Z,1000.12
2019-05-26T09:20:11.131Z,1000.07
2019-05-26T09:21:09.601Z,1000.10
2019-05-26T09:22:08.877Z,1000.09
2019-05-26T09:23:08.925Z,1000.04
2019-05-26T09:24:08.989Z,1000.04
2019-05-26T09:25:08.865Z,1000.04
2019-05-26T09:26:08.850Z,1000.06
2019-05-26T09:27:08.838Z,1000.12
2019-05-26T09:28:09.101Z,1000.05
2019-05-26T09:29:08.808Z,1000.06
2019-05-26T09:30:08.821Z,1000.06
2019-05-26T09:31:10.067Z,1000.02
2019-05-26T09:32:08.832Z,1000.03
2019-05-26T09:33:08.763Z,1000.05
2019-05-26T09:34:09.977Z,1000.02
2019-05-26T09:35:09.267Z,1000.00
2019-05-26T09:36:08.726Z,999.99
2019-05-26T09:37:08.713Z,999.95
2019-05-26T09:38:08.693Z,999.98
2019-05-26T09:39:08.752Z,999.93
2019-05-26T09:40:09.118Z,999.96
2019-05-26T09:41:08.668Z,999.96
2019-05-26T09:42:08.667Z,999.95
2019-05-26T09:43:16.143Z,999.99
2019-05-26T09:44:08.636Z,999.96
2019-05-26T09:45:08.768Z,999.94
2019-05-26T09:46:08.636Z,999.95
2019-05-26T09:47:08.691Z,999.99
2019-05-26T09:48:09.149Z,999.97
2019-05-26T09:49:08.593Z,1000.01
2019-05-26T09:50:09.134Z,1000.04
2019-05-26T09:51:08.649Z,1000.09
2019-05-26T09:52:08.555Z,1000.06
2019-05-26T09:53:08.545Z,1000.03
2019-05-26T09:54:08.533Z,1000.01
2019-05-26T09:55:09.358Z,1000.01
2019-05-26T09:56:08.522Z,999.98
2019-05-26T09:57:08.527Z,1000.00
2019-05-26T09:58:08.494Z,999.99
2019-05-26T09:59:08.541Z,1000.00
2019-05-26T10:00:08.471Z,1000.02
2019-05-26T10:01:08.572Z,1000.04
2019-05-26T10:02:08.510Z,999.96
2019-05-26T10:03:09.137Z,999.94
2019-05-26T10:04:08.431Z,999.89
2019-05-26T10:05:08.424Z,999.94
2019-05-26T10:06:08.417Z,999.90
2019-05-26T10:07:11.129Z,999.91
2019-05-26T10:08:08.638Z,999.90
2019-05-26T10:09:08.453Z,999.89
2019-05-26T10:10:08.373Z,999.89
2019-05-26T10:11:08.368Z,999.88
2019-05-26T10:12:08.642Z,999.92
2019-05-26T10:13:08.331Z,999.92
2019-05-26T10:14:09.134Z,999.88
2019-05-26T10:15:08.310Z,999.87
2019-05-26T10:16:08.293Z,999.87
2019-05-26T10:17:08.322Z,999.86
2019-05-26T10:18:08.278Z,999.87
2019-05-26T10:19:08.270Z,999.89
2019-05-26T10:20:08.293Z,999.88
2019-05-26T10:21:08.241Z,999.84
2019-05-26T10:22:08.249Z,999.96
2019-05-26T10:23:08.258Z,999.86
2019-05-26T10:24:08.220Z,999.85
2019-05-26T10:25:08.230Z,999.85
2019-05-26T10:26:08.195Z,999.93
2019-05-26T10:27:08.179Z,1000.04
2019-05-26T10:28:08.186Z,1000.16
2019-05-26T10:29:08.160Z,999.86
2019-05-26T10:30:08.178Z,999.88
2019-05-26T10:31:09.273Z,999.77
2019-05-26T10:32:08.143Z,999.87
2019-05-26T10:33:08.138Z,999.96
2019-05-26T10:34:08.155Z,1000.01
2019-05-26T10:35:08.136Z,999.89
2019-05-26T10:36:08.121Z,999.88
2019-05-26T10:37:08.104Z,999.81
2019-05-26T10:38:08.166Z,1000.03
2019-05-26T10:39:08.069Z,999.84
2019-05-26T10:40:08.251Z,999.93
2019-05-26T10:41:08.056Z,999.87
2019-05-26T10:42:08.039Z,999.92
2019-05-26T10:43:08.028Z,999.75
2019-05-26T10:44:08.022Z,999.85
2019-05-26T10:45:08.017Z,999.84
2019-05-26T10:46:08.035Z,999.93
2019-05-26T10:47:08.003Z,999.80
2019-05-26T10:48:08.749Z,999.64
2019-05-26T10:49:08.655Z,999.76
2019-05-26T10:50:08.940Z,999.71
2019-05-26T10:51:08.672Z,999.76
2019-05-26T10:52:08.688Z,999.67
2019-05-26T10:53:08.649Z,999.62
2019-05-26T10:54:09.237Z,999.74
2019-05-26T10:55:08.755Z,999.67
2019-05-26T10:56:08.836Z,999.79
2019-05-26T10:57:08.636Z,999.71
2019-05-26T10:58:08.533Z,999.78
2019-05-26T10:59:08.783Z,1000.10
2019-05-26T11:00:08.874Z,1000.11
2019-05-26T11:01:08.965Z,999.84
2019-05-26T11:02:08.489Z,999.76
2019-05-26T11:03:08.529Z,999.55
2019-05-26T11:04:09.264Z,999.66
2019-05-26T11:05:09.254Z,999.54
2019-05-26T11:06:09.212Z,999.58
2019-05-26T11:07:08.819Z,999.57
2019-05-26T11:08:08.491Z,999.61
2019-05-26T11:09:08.556Z,999.60
2019-05-26T11:10:09.387Z,999.58
2019-05-26T11:11:08.482Z,999.55
2019-05-26T11:12:08.499Z,999.54
2019-05-26T11:13:09.021Z,999.65
2019-05-26T11:14:09.043Z,999.62
2019-05-26T11:15:09.349Z,999.74
2019-05-26T11:16:07.826Z,999.79
2019-05-26T11:17:07.814Z,999.60
2019-05-26T11:18:07.944Z,1000.02
2019-05-26T11:19:07.807Z,1000.07
2019-05-26T11:20:07.804Z,1000.02
2019-05-26T11:21:07.788Z,999.90
2019-05-26T11:22:07.788Z,999.76
2019-05-26T11:23:07.781Z,999.68
2019-05-26T11:24:07.785Z,999.59
2019-05-26T11:25:07.903Z,999.63
2019-05-26T11:26:07.765Z,999.85
2019-05-26T11:27:11.360Z,999.53
2019-05-26T11:28:07.762Z,999.61
2019-05-26T11:29:07.754Z,999.62
2019-05-26T11:30:07.745Z,999.49
2019-05-26T11:31:07.752Z,999.51
2019-05-26T11:32:07.744Z,999.50
2019-05-26T11:33:07.757Z,999.39
2019-05-26T11:34:07.731Z,999.30
2019-05-26T11:35:07.858Z,999.51
2019-05-26T11:36:07.717Z,999.53
2019-05-26T11:37:07.728Z,999.61
2019-05-26T11:38:07.706Z,999.49
2019-05-26T11:39:07.707Z,999.58
2019-05-26T11:40:07.701Z,999.65
2019-05-26T11:41:07.711Z,999.71
2019-05-26T11:42:13.418Z,999.72
2019-05-26T11:43:16.246Z,999.81
2019-05-26T11:44:17.391Z,999.34
2019-05-26T11:45:07.680Z,999.61
2019-05-26T11:46:07.699Z,999.44
2019-05-26T11:47:07.656Z,999.30
2019-05-26T11:48:07.665Z,999.28
2019-05-26T11:49:07.655Z,999.41
2019-05-26T11:50:07.642Z,999.27
2019-05-26T11:51:07.646Z,999.41
2019-05-26T11:52:07.728Z,999.21
2019-05-26T11:53:07.629Z,999.22
2019-05-26T11:54:07.615Z,999.17
2019-05-26T11:55:07.619Z,999.13
2019-05-26T11:56:07.642Z,999.10
2019-05-26T11:57:07.627Z,998.98
2019-05-26T11:58:07.589Z,999.05
2019-05-26T11:59:07.592Z,999.03
2019-05-26T12:00:08.006Z,999.11
2019-05-26T12:01:07.592Z,999.03
2019-05-26T12:02:07.719Z,998.99
2019-05-26T12:03:07.564Z,998.96
2019-05-26T12:04:07.562Z,998.99
2019-05-26T12:05:07.554Z,999.06
2019-05-26T12:06:07.540Z,998.91
2019-05-26T12:07:07.533Z,999.01
2019-05-26T12:08:07.668Z,998.98
2019-05-26T12:09:07.524Z,998.94
2019-05-26T12:10:07.509Z,999.07
2019-05-26T12:11:07.509Z,998.94
2019-05-26T12:12:07.507Z,998.94
2019-05-26T12:13:07.502Z,998.93
2019-05-26T12:14:07.497Z,998.92
2019-05-26T12:15:07.486Z,998.93
2019-05-26T12:16:07.468Z,998.91
2019-05-26T12:17:07.466Z,998.92
2019-05-26T12:18:07.485Z,998.95
2019-05-26T12:19:07.452Z,998.86
2019-05-26T12:20:07.458Z,998.91
2019-05-26T12:21:07.439Z,998.86
2019-05-26T12:22:07.422Z,998.87
2019-05-26T12:23:07.554Z,998.82
2019-05-26T12:24:07.412Z,998.80
2019-05-26T12:25:07.398Z,998.79
2019-05-26T12:26:07.399Z,998.78
2019-05-26T12:27:07.390Z,998.85
2019-05-26T12:28:07.383Z,998.82
2019-05-26T12:29:07.399Z,998.72
2019-05-26T12:30:07.392Z,998.72
2019-05-26T12:31:07.354Z,998.72
2019-05-26T12:32:07.368Z,998.62
2019-05-26T12:33:07.340Z,998.61
2019-05-26T12:34:07.330Z,998.61
2019-05-26T12:35:07.351Z,998.64
2019-05-26T12:36:07.309Z,998.62
2019-05-26T12:37:07.300Z,998.65
2019-05-26T12:38:07.295Z,998.65
2019-05-26T12:39:07.278Z,998.61
2019-05-26T12:40:07.298Z,998.63
2019-05-26T12:41:07.271Z,998.61
2019-05-26T12:42:07.256Z,998.64
2019-05-26T12:43:07.258Z,998.57
2019-05-26T12:44:10.759Z,998.60
2019-05-26T12:45:07.254Z,998.59
2019-05-26T12:46:07.219Z,998.65
2019-05-26T12:47:07.232Z,998.54
2019-05-26T12:48:07.198Z,998.57
2019-05-26T12:49:07.199Z,998.62
2019-05-26T12:50:07.343Z,998.57
2019-05-26T12:51:07.183Z,998.62
2019-05-26T12:52:07.179Z,998.64
2019-05-26T12:53:07.181Z,998.55
2019-05-26T12:55:39.783Z,998.52
2019-05-26T12:56:39.749Z,998.55
2019-05-26T12:57:39.740Z,998.41
2019-05-26T12:58:39.685Z,998.52
2019-05-26T12:59:39.677Z,998.51
2019-05-26T13:00:48.892Z,998.46
2019-05-26T13:01:39.709Z,998.53
2019-05-26T13:02:39.658Z,998.47
2019-05-26T13:03:39.641Z,998.59
2019-05-26T13:04:39.671Z,998.46
2019-05-26T13:05:39.652Z,998.47
2019-05-26T13:06:39.621Z,998.49
2019-05-26T13:07:39.612Z,998.46
2019-05-26T13:08:39.615Z,998.42
2019-05-26T13:09:39.592Z,998.41
2019-05-26T13:10:39.594Z,998.44
2019-05-26T13:11:39.713Z,998.37
2019-05-26T13:12:39.562Z,998.36
2019-05-26T13:13:39.572Z,998.34
2019-05-26T13:14:39.551Z,998.42
2019-05-26T13:15:39.544Z,998.44
2019-05-26T13:16:39.545Z,998.42
2019-05-26T13:17:39.567Z,998.40
2019-05-26T13:18:39.519Z,998.36
2019-05-26T13:19:39.512Z,998.42
2019-05-26T13:20:39.501Z,998.56
2019-05-26T13:21:39.497Z,998.32
2019-05-26T13:22:40.594Z,998.26
2019-05-26T13:23:39.488Z,998.36
2019-05-26T13:24:39.470Z,998.27
2019-05-26T13:25:39.471Z,998.35
2019-05-26T13:26:39.465Z,998.38
2019-05-26T13:27:39.479Z,998.32
2019-05-26T13:28:39.446Z,998.32
2019-05-26T13:29:39.429Z,998.35
2019-05-26T13:30:39.416Z,998.45
2019-05-26T13:31:39.429Z,998.38
2019-05-26T13:32:39.404Z,998.40
2019-05-26T13:33:39.433Z,998.34
2019-05-26T13:34:39.384Z,998.37
2019-05-26T13:35:39.376Z,998.29
2019-05-26T13:36:39.376Z,998.25
2019-05-26T13:37:39.355Z,998.24
2019-05-26T13:38:39.356Z,998.32
2019-05-26T13:39:39.453Z,998.23
2019-05-26T13:40:39.396Z,998.26
2019-05-26T13:41:39.324Z,998.28
2019-05-26T13:42:39.319Z,998.27
2019-05-26T13:43:39.333Z,998.23
2019-05-26T13:44:39.302Z,998.18
2019-05-26T13:45:39.439Z,998.19
2019-05-26T13:46:39.287Z,998.25
2019-05-26T13:47:39.276Z,998.18
2019-05-26T13:48:39.279Z,998.14
2019-05-26T13:49:39.269Z,998.22
2019-05-26T13:50:39.263Z,998.12
2019-05-26T13:51:39.245Z,998.11
2019-05-26T13:52:39.282Z,998.12
2019-05-26T13:53:39.229Z,998.11
2019-05-26T13:54:39.230Z,998.03
2019-05-26T13:55:39.242Z,997.99
2019-05-26T13:56:39.202Z,997.98
2019-05-26T13:57:39.195Z,998.04
2019-05-26T13:58:39.196Z,998.07
2019-05-26T13:59:39.185Z,998.04
2019-05-26T14:00:39.225Z,997.97
2019-05-26T14:01:39.729Z,998.05
2019-05-26T14:02:39.160Z,997.95
2019-05-26T14:03:39.149Z,997.96
2019-05-26T14:04:39.130Z,997.96
2019-05-26T14:05:39.145Z,998.01
2019-05-26T14:06:39.125Z,997.94
2019-05-26T14:07:39.103Z,997.96
2019-05-26T14:08:39.107Z,998.01
2019-05-26T14:09:39.097Z,997.98
2019-05-26T14:10:39.120Z,997.99
2019-05-26T14:11:39.070Z,997.93
2019-05-26T14:12:39.067Z,997.98
2019-05-26T14:13:39.063Z,997.93
2019-05-26T14:14:39.043Z,997.90
2019-05-26T14:15:39.553Z,997.85
2019-05-26T14:16:39.031Z,997.89
2019-05-26T14:17:39.033Z,997.90
2019-05-26T14:18:39.024Z,997.88
2019-05-26T14:19:39.010Z,997.94
2019-05-26T14:20:39.008Z,997.90
2019-05-26T14:21:39.015Z,997.90
2019-05-26T14:22:38.995Z,997.90
2019-05-26T14:23:38.966Z,997.89
2019-05-26T14:24:52.943Z,997.92
2019-05-26T14:25:38.951Z,997.86
2019-05-26T14:26:38.976Z,997.85
2019-05-26T14:27:38.935Z,997.77
2019-05-26T14:28:38.941Z,997.80
2019-05-26T14:29:38.929Z,997.80
2019-05-26T14:30:38.913Z,997.79
2019-05-26T14:31:38.898Z,997.77
2019-05-26T14:32:38.906Z,997.75
2019-05-26T14:33:38.899Z,997.75
2019-05-26T14:34:38.880Z,997.72
2019-05-26T14:35:38.860Z,997.74
2019-05-26T14:36:38.864Z,997.66
2019-05-26T14:37:38.868Z,997.67
2019-05-26T14:38:43.317Z,997.75
2019-05-26T14:39:38.828Z,997.64
2019-05-26T14:40:38.834Z,997.66
2019-05-26T14:41:38.806Z,997.65
2019-05-26T14:42:38.822Z,997.64
2019-05-26T14:43:38.787Z,997.70
2019-05-26T14:44:38.774Z,997.64
2019-05-26T14:45:52.255Z,997.71
2019-05-26T14:46:38.759Z,997.66
2019-05-26T14:47:38.778Z,997.66
2019-05-26T14:48:38.754Z,997.66
2019-05-26T14:49:38.731Z,997.69
2019-05-26T14:50:40.809Z,997.70
2019-05-26T14:51:38.719Z,997.65
2019-05-26T14:52:38.716Z,997.65
2019-05-26T14:53:38.709Z,997.61
2019-05-26T14:54:38.721Z,997.55
2019-05-26T14:55:38.687Z,997.59
2019-05-26T14:56:38.667Z,997.54
2019-05-26T14:57:38.667Z,997.53
2019-05-26T14:58:38.645Z,997.52
2019-05-26T14:59:38.664Z,997.48
2019-05-26T15:00:38.665Z,997.47
2019-05-26T15:01:38.624Z,997.50
2019-05-26T15:02:38.619Z,997.57
2019-05-26T15:03:38.607Z,997.50
2019-05-26T15:04:38.608Z,997.53
2019-05-26T15:05:38.606Z,997.47
2019-05-26T15:06:38.580Z,997.47
2019-05-26T15:07:38.573Z,997.45
2019-05-26T15:08:38.563Z,997.47
2019-05-26T15:09:38.545Z,997.42
2019-05-26T15:10:38.539Z,997.47
2019-05-26T15:11:38.529Z,997.46
2019-05-26T15:12:38.527Z,997.48
2019-05-26T15:13:38.502Z,997.44
2019-05-26T15:14:38.513Z,997.43
2019-05-26T15:15:38.553Z,997.45
2019-05-26T15:16:38.505Z,997.45
2019-05-26T15:17:38.471Z,997.41
2019-05-26T15:18:38.459Z,997.45
2019-05-26T15:19:38.455Z,997.37
2019-05-26T15:20:38.478Z,997.35
2019-05-26T15:21:38.440Z,997.34
2019-05-26T15:22:38.437Z,997.40
2019-05-26T15:23:38.408Z,997.34
2019-05-26T15:24:38.408Z,997.30
2019-05-26T15:25:38.394Z,997.30
2019-05-26T15:26:38.449Z,997.27
2019-05-26T15:27:38.371Z,997.25
2019-05-26T15:28:38.364Z,997.32
2019-05-26T15:29:38.360Z,997.30
2019-05-26T15:30:38.356Z,997.26
2019-05-26T15:31:38.362Z,997.21
2019-05-26T15:32:38.328Z,997.30
2019-05-26T15:33:38.321Z,997.26
2019-05-26T15:34:38.310Z,997.31
2019-05-26T15:35:38.299Z,997.28
2019-05-26T15:36:38.354Z,997.27
2019-05-26T15:37:38.282Z,997.21
2019-05-26T15:38:42.967Z,997.23
2019-05-26T15:39:38.256Z,997.20
2019-05-26T15:40:38.259Z,997.26
2019-05-26T15:41:38.243Z,997.16
2019-05-26T15:42:38.264Z,997.14
2019-05-26T15:43:38.226Z,997.15
2019-05-26T15:44:38.224Z,997.11
2019-05-26T15:45:38.207Z,997.08
2019-05-26T15:46:38.195Z,997.16
2019-05-26T15:47:38.209Z,997.18
2019-05-26T15:48:38.179Z,997.18
2019-05-26T15:49:38.168Z,997.16
2019-05-26T15:50:38.174Z,997.12
2019-05-26T15:51:38.154Z,997.14
2019-05-26T15:52:38.224Z,997.13
2019-05-26T15:53:38.132Z,997.12
2019-05-26T15:54:38.123Z,997.11
2019-05-26T15:55:40.039Z,997.10
2019-05-26T15:56:38.112Z,997.07
2019-05-26T15:57:38.124Z,997.04
2019-05-26T15:58:38.093Z,997.03
2019-05-26T15:59:38.089Z,996.99
2019-05-26T16:00:38.084Z,996.97
2019-05-26T16:01:38.084Z,996.98
2019-05-26T16:02:38.096Z,996.98
2019-05-26T16:03:38.295Z,996.99
2019-05-26T16:04:38.035Z,996.92
2019-05-26T16:05:38.031Z,996.94
2019-05-26T16:06:38.017Z,996.95
2019-05-26T16:07:38.023Z,996.98
2019-05-26T16:08:38.031Z,996.89
2019-05-26T16:09:38.020Z,996.95
2019-05-26T16:10:37.978Z,996.82
2019-05-26T16:11:37.965Z,996.85
2019-05-26T16:12:37.956Z,996.83
2019-05-26T16:13:37.979Z,996.79
2019-05-26T16:14:37.969Z,996.80
2019-05-26T16:15:37.928Z,996.77
2019-05-26T16:16:41.246Z,996.79
2019-05-26T16:17:39.008Z,996.75
2019-05-26T16:18:37.900Z,996.77
2019-05-26T16:19:38.023Z,996.77
2019-05-26T16:20:37.889Z,996.75
2019-05-26T16:21:37.869Z,996.76
2019-05-26T16:22:37.866Z,996.73
2019-05-26T16:23:37.857Z,996.70
2019-05-26T16:24:37.870Z,996.68
2019-05-26T16:25:37.853Z,996.71
2019-05-26T16:26:37.821Z,996.65
2019-05-26T16:27:37.811Z,996.70
2019-05-26T16:28:37.801Z,996.70
2019-05-26T16:29:37.797Z,996.72
2019-05-26T16:30:37.826Z,996.67
2019-05-26T16:31:37.775Z,996.70
2019-05-26T16:32:37.763Z,996.60
2019-05-26T16:33:37.764Z,996.62
2019-05-26T16:34:37.802Z,996.65
2019-05-26T16:35:37.744Z,996.65
2019-05-26T16:36:37.739Z,996.63
2019-05-26T16:37:37.715Z,996.65
2019-05-26T16:38:37.703Z,996.62
2019-05-26T16:39:37.845Z,996.60
2019-05-26T16:40:37.721Z,996.68
2019-05-26T16:41:37.680Z,996.58
2019-05-26T16:42:37.702Z,996.63
2019-05-26T16:43:37.653Z,996.66
2019-05-26T16:44:37.645Z,996.63
2019-05-26T16:45:37.645Z,996.68
2019-05-26T16:46:37.630Z,996.62
2019-05-26T16:47:37.648Z,996.57
2019-05-26T16:48:37.609Z,996.62
2019-05-26T16:49:37.603Z,996.65
2019-05-26T16:50:37.597Z,996.59
2019-05-26T16:51:37.574Z,996.59
2019-05-26T16:52:37.603Z,996.52
2019-05-26T16:53:37.570Z,996.55
2019-05-26T16:54:37.550Z,996.50
2019-05-26T16:55:37.539Z,996.50
2019-05-26T16:56:37.543Z,996.52
2019-05-26T16:57:37.660Z,996.51
2019-05-26T16:58:37.518Z,996.48
2019-05-26T16:59:37.512Z,996.45
2019-05-26T17:00:37.491Z,996.45
2019-05-26T17:01:37.488Z,996.48
2019-05-26T17:02:37.489Z,996.47
2019-05-26T17:03:37.489Z,996.46
2019-05-26T17:04:37.455Z,996.41
2019-05-26T17:05:37.456Z,996.46
2019-05-26T17:06:37.432Z,996.43
2019-05-26T17:07:37.460Z,996.43
2019-05-26T17:08:37.553Z,996.41
2019-05-26T17:09:37.404Z,996.44
2019-05-26T17:10:37.406Z,996.44
2019-05-26T17:11:37.386Z,996.39
2019-05-26T17:12:37.394Z,996.42
2019-05-26T17:13:37.375Z,996.47
2019-05-26T17:14:37.391Z,996.41
2019-05-26T17:15:37.356Z,996.38
2019-05-26T17:16:37.350Z,996.39
2019-05-26T17:17:37.326Z,996.39
2019-05-26T17:18:37.327Z,996.37
2019-05-26T17:19:37.440Z,996.35
2019-05-26T17:20:37.312Z,996.34
2019-05-26T17:21:37.286Z,996.33
2019-05-26T17:22:37.295Z,996.33
2019-05-26T17:23:37.297Z,996.30
2019-05-26T17:24:37.279Z,996.32
2019-05-26T17:25:37.295Z,996.36
2019-05-26T17:26:37.237Z,996.39
2019-05-26T17:27:37.329Z,996.29
2019-05-26T17:28:37.231Z,996.36
2019-05-26T17:29:37.237Z,996.34
2019-05-26T17:30:37.298Z,996.33
2019-05-26T17:31:37.204Z,996.29
2019-05-26T17:32:37.187Z,996.32
2019-05-26T17:33:37.191Z,996.35
2019-05-26T17:34:37.170Z,996.28
2019-05-26T17:35:37.159Z,996.27
2019-05-26T17:36:37.178Z,996.33
2019-05-26T17:37:37.157Z,996.29
2019-05-26T17:38:37.129Z,996.28
2019-05-26T17:39:37.113Z,996.30
2019-05-26T17:40:37.124Z,996.29
2019-05-26T17:41:37.098Z,996.25
2019-05-26T17:42:37.104Z,996.24
2019-05-26T17:43:37.074Z,996.25
2019-05-26T17:44:37.068Z,996.26
2019-05-26T17:45:37.194Z,996.27
2019-05-26T17:46:37.050Z,996.29
2019-05-26T17:47:37.044Z,996.26
2019-05-26T17:48:37.031Z,996.24
2019-05-26T17:49:37.034Z,996.25
2019-05-26T17:50:37.020Z,996.23
2019-05-26T17:51:37.033Z,996.24
2019-05-26T17:52:37.002Z,996.24
2019-05-26T17:53:36.991Z,996.16
2019-05-26T17:54:36.981Z,996.19
2019-05-26T17:55:36.969Z,996.22
2019-05-26T17:56:36.969Z,996.16
2019-05-26T17:57:37.334Z,996.17
2019-05-26T17:58:36.957Z,996.25
2019-05-26T17:59:36.931Z,996.18
2019-05-26T18:00:36.924Z,996.17
2019-05-26T18:01:36.904Z,996.19
2019-05-26T18:02:36.925Z,996.21
2019-05-26T18:03:36.886Z,996.17
2019-05-26T18:04:36.905Z,996.17
2019-05-26T18:05:36.869Z,996.15
2019-05-26T18:06:36.863Z,996.17
2019-05-26T18:07:36.841Z,996.17
2019-05-26T18:08:37.282Z,996.16
2019-05-26T18:09:44.065Z,996.16
2019-05-26T18:10:36.829Z,996.13
2019-05-26T18:11:36.814Z,996.14
2019-05-26T18:12:36.827Z,996.08
2019-05-26T18:13:36.789Z,996.05
2019-05-26T18:14:36.782Z,996.03
2019-05-26T18:15:36.785Z,996.07
2019-05-26T18:16:36.763Z,995.98
2019-05-26T18:17:46.286Z,996.03
2019-05-26T18:18:36.748Z,996.01
2019-05-26T18:19:36.758Z,995.98
2019-05-26T18:20:36.757Z,996.03
2019-05-26T18:21:36.715Z,995.97
2019-05-26T18:22:36.704Z,996.03
2019-05-26T18:23:36.689Z,996.04
2019-05-26T18:24:36.683Z,995.97
2019-05-26T18:25:36.682Z,996.00
2019-05-26T18:26:36.671Z,996.01
2019-05-26T18:27:36.658Z,996.04